createdAt,value
2023-01-03T00:00:49.820Z,82.11
2023-01-03T00:03:19.686Z,82.82
2023-01-03T00:05:47.736Z,83.67
2023-01-03T00:08:15.898Z,82.85
2023-01-03T00:10:43.045Z,81.12
2023-01-03T00:13:10.483Z,80.39
2023-01-03T00:15:38.569Z,80.32
2023-01-03T00:18:05.648Z,80.74
2023-01-03T00:20:34.481Z,82.34
2023-01-03T00:23:02.467Z,82.89
2023-01-03T00:25:29.719Z,82.10
2023-01-03T00:27:56.865Z,82.00
2023-01-03T00:30:23.927Z,82.25
2023-01-03T00:32:50.806Z,82.89
2023-01-03T00:35:17.724Z,83.44
2023-01-03T00:37:44.609Z,83.41
2023-01-03T00:40:11.917Z,82.89
2023-01-03T00:42:58.716Z,81.27
2023-01-03T00:45:26.447Z,81.31
2023-01-03T00:47:53.929Z,82.15
2023-01-03T00:50:20.785Z,83.52
2023-01-03T00:52:47.812Z,84.98
2023-01-03T00:55:14.789Z,85.75
2023-01-03T00:57:41.813Z,85.89
2023-01-03T01:00:09.591Z,84.50
2023-01-03T01:02:36.791Z,83.64
2023-01-03T01:05:05.273Z,83.27
2023-01-03T01:07:32.190Z,83.12
2023-01-03T01:09:59.191Z,83.40
2023-01-03T01:12:26.164Z,84.42
2023-01-03T01:14:53.203Z,84.22
2023-01-03T01:17:22.767Z,82.97
2023-01-03T01:19:50.252Z,82.67
2023-01-03T01:22:17.190Z,83.20
2023-01-03T01:24:44.865Z,83.87
2023-01-03T01:27:11.901Z,84.72
2023-01-03T01:29:38.900Z,83.93
2023-01-03T01:32:05.908Z,83.11
2023-01-03T01:34:33.042Z,83.02
2023-01-03T01:37:00.035Z,84.15
2023-01-03T01:39:28.058Z,85.30
2023-01-03T01:42:20.775Z,85.24
2023-01-03T01:44:59.532Z,83.96
2023-01-03T01:47:41.979Z,83.93
2023-01-03T01:50:12.691Z,84.42
2023-01-03T01:52:42.029Z,85.41
2023-01-03T01:55:13.334Z,86.52
2023-01-03T01:57:40.364Z,85.23
2023-01-03T02:00:08.895Z,83.53
2023-01-03T02:02:42.920Z,83.53
2023-01-03T02:05:10.313Z,84.41
2023-01-03T02:07:38.436Z,85.01
2023-01-03T02:10:06.097Z,84.84
2023-01-03T02:13:07.022Z,84.24
2023-01-03T02:15:46.997Z,83.53
2023-01-03T02:18:36.722Z,84.27
2023-01-03T02:21:49.138Z,85.52
2023-01-03T02:24:37.982Z,86.00
2023-01-03T02:27:26.501Z,84.45
2023-01-03T02:30:15.088Z,82.99
2023-01-03T02:32:51.354Z,82.81
2023-01-03T02:35:29.656Z,84.07
2023-01-03T02:38:13.195Z,85.22
2023-01-03T02:40:46.489Z,84.33
2023-01-03T02:43:52.275Z,82.63
2023-01-03T02:46:40.827Z,83.05
2023-01-03T02:49:20.436Z,84.78
2023-01-03T02:51:51.272Z,85.36
2023-01-03T02:54:21.498Z,84.13
2023-01-03T02:56:53.146Z,82.64
2023-01-03T02:59:23.371Z,82.11
2023-01-03T03:01:51.280Z,82.34
2023-01-03T03:04:19.194Z,83.56
2023-01-03T03:06:49.757Z,83.22
2023-01-03T03:09:16.788Z,81.70
2023-01-03T03:12:02.985Z,81.45
2023-01-03T03:14:41.569Z,82.49
2023-01-03T03:17:14.238Z,83.66
2023-01-03T03:20:05.957Z,83.93
2023-01-03T03:22:59.985Z,82.15
2023-01-03T03:25:47.304Z,81.85
2023-01-03T03:28:35.051Z,81.96
2023-01-03T03:31:09.608Z,82.70
2023-01-03T03:33:42.653Z,83.62
2023-01-03T03:36:44.084Z,83.38
2023-01-03T03:39:31.226Z,81.92
2023-01-03T03:42:44.757Z,81.76
2023-01-03T03:45:39.757Z,82.18
2023-01-03T03:48:17.504Z,82.12
2023-01-03T03:50:49.304Z,82.60
2023-01-03T03:53:16.581Z,81.78
2023-01-03T03:55:50.988Z,80.36
2023-01-03T03:58:20.843Z,80.11
2023-01-03T04:00:48.382Z,80.48
2023-01-03T04:03:15.693Z,80.98
2023-01-03T04:06:03.045Z,82.19
2023-01-03T04:08:30.089Z,81.33
2023-01-03T04:11:05.990Z,79.66
2023-01-03T04:13:37.211Z,79.29
2023-01-03T04:16:04.890Z,79.77
2023-01-03T04:18:31.757Z,80.43
2023-01-03T04:20:58.736Z,81.32
2023-01-03T04:23:25.791Z,80.89
2023-01-03T04:25:52.665Z,79.20
2023-01-03T04:28:19.664Z,78.64
2023-01-03T04:30:46.968Z,79.10
2023-01-03T04:33:14.073Z,79.75
2023-01-03T04:35:41.145Z,80.70
2023-01-03T04:38:08.167Z,80.99
2023-01-03T04:40:35.624Z,79.68
2023-01-03T04:43:21.340Z,78.42
2023-01-03T04:45:49.522Z,78.53
2023-01-03T04:48:17.249Z,79.11
2023-01-03T04:50:54.531Z,79.78
2023-01-03T04:53:22.407Z,80.64
2023-01-03T04:55:50.219Z,80.39
2023-01-03T04:58:17.217Z,78.72
2023-01-03T05:00:44.310Z,78.40
2023-01-03T05:03:11.508Z,79.16
2023-01-03T05:05:38.673Z,79.66
2023-01-03T05:08:10.124Z,80.21
2023-01-03T05:10:40.940Z,80.72
2023-01-03T05:13:08.589Z,79.54
2023-01-03T05:15:37.217Z,79.07
2023-01-03T05:18:04.543Z,79.75
2023-01-03T05:20:50.231Z,80.80
2023-01-03T05:23:36.764Z,82.11
2023-01-03T05:26:24.256Z,82.38
2023-01-03T05:28:52.842Z,80.72
2023-01-03T05:31:20.563Z,80.13
2023-01-03T05:33:49.295Z,80.73
2023-01-03T05:36:16.782Z,81.48
2023-01-03T05:38:43.995Z,82.79
2023-01-03T05:41:10.862Z,83.41
2023-01-03T05:43:37.761Z,81.92
2023-01-03T05:46:04.850Z,81.52
2023-01-03T05:48:31.791Z,82.05
2023-01-03T05:50:58.996Z,83.28
2023-01-03T05:53:25.973Z,84.18
2023-01-03T05:55:53.126Z,83.64
2023-01-03T05:58:20.019Z,82.34
2023-01-03T06:00:47.637Z,82.31
2023-01-03T06:03:14.712Z,82.95
2023-01-03T06:05:47.853Z,83.95
2023-01-03T06:08:16.869Z,84.04
2023-01-03T06:10:43.945Z,82.80
2023-01-03T06:13:10.975Z,82.48
2023-01-03T06:15:38.009Z,83.38
2023-01-03T06:18:05.053Z,84.10
2023-01-03T06:20:32.104Z,84.32
2023-01-03T06:22:59.174Z,82.75
2023-01-03T06:25:26.192Z,82.02
2023-01-03T06:27:53.184Z,82.37
2023-01-03T06:30:21.099Z,82.95
2023-01-03T06:32:48.365Z,83.82
2023-01-03T06:35:15.344Z,83.45
2023-01-03T06:37:42.353Z,82.03
2023-01-03T06:40:10.242Z,81.79
2023-01-03T06:42:40.243Z,82.74
2023-01-03T06:45:27.185Z,83.73
2023-01-03T06:48:13.141Z,84.18
2023-01-03T06:51:00.049Z,82.52
2023-01-03T06:53:29.701Z,81.32
2023-01-03T06:55:57.532Z,81.31
2023-01-03T06:58:25.181Z,81.77
2023-01-03T07:00:52.054Z,82.69
2023-01-03T07:03:19.185Z,83.40
2023-01-03T07:05:46.228Z,81.93
2023-01-03T07:08:13.373Z,80.49
2023-01-03T07:10:41.450Z,80.42
2023-01-03T07:13:27.437Z,80.79
2023-01-03T07:15:54.455Z,81.51
2023-01-03T07:18:21.844Z,82.02
2023-01-03T07:20:48.915Z,81.95
2023-01-03T07:23:15.933Z,80.32
2023-01-03T07:25:43.079Z,79.55
2023-01-03T07:28:13.834Z,79.61
2023-01-03T07:30:42.398Z,79.85
2023-01-03T07:33:10.204Z,80.32
2023-01-03T07:35:37.239Z,80.85
2023-01-03T07:38:04.676Z,80.76
2023-01-03T07:40:31.791Z,78.99
2023-01-03T07:43:17.508Z,77.86
2023-01-03T07:45:45.468Z,77.62
2023-01-03T07:48:12.517Z,77.65
2023-01-03T07:50:39.780Z,78.20
2023-01-03T07:53:07.735Z,78.51
2023-01-03T07:55:35.851Z,78.77
2023-01-03T07:58:02.879Z,78.99
2023-01-03T08:00:29.906Z,78.66
2023-01-03T08:02:57.150Z,77.25
2023-01-03T08:05:24.510Z,76.28
2023-01-03T08:07:52.334Z,76.86
2023-01-03T08:10:38.439Z,77.35
2023-01-03T08:13:17.801Z,77.77
2023-01-03T08:15:52.011Z,78.13
2023-01-03T08:18:21.427Z,78.37
2023-01-03T08:20:48.493Z,78.45
2023-01-03T08:23:15.633Z,78.48
2023-01-03T08:25:43.076Z,78.69
2023-01-03T08:28:10.695Z,78.83
2023-01-03T08:30:41.559Z,78.38
2023-01-03T08:33:10.470Z,78.30
2023-01-03T08:35:38.765Z,78.85
2023-01-03T08:38:07.229Z,78.71
2023-01-03T08:40:41.509Z,77.01
2023-01-03T08:43:09.207Z,76.14
2023-01-03T08:45:36.565Z,76.27
2023-01-03T08:48:03.700Z,76.42
2023-01-03T08:50:30.967Z,76.94
2023-01-03T08:52:58.525Z,76.95
2023-01-03T08:55:25.590Z,77.29
2023-01-03T08:57:52.516Z,77.45
2023-01-03T09:00:19.873Z,77.51
2023-01-03T09:02:47.273Z,77.64
2023-01-03T09:05:14.568Z,77.20
2023-01-03T09:07:41.547Z,77.36
2023-01-03T09:10:09.293Z,77.88
2023-01-03T09:12:36.434Z,77.88
2023-01-03T09:15:03.789Z,77.79
2023-01-03T09:17:30.928Z,76.63
2023-01-03T09:19:58.004Z,77.35
2023-01-03T09:22:25.029Z,77.21
2023-01-03T09:24:52.109Z,77.61
2023-01-03T09:27:19.339Z,77.02
2023-01-03T09:29:46.995Z,76.44
2023-01-03T09:32:14.057Z,75.91
2023-01-03T09:34:41.189Z,75.77
2023-01-03T09:37:08.569Z,76.65
2023-01-03T09:39:36.914Z,76.37
2023-01-03T09:42:23.849Z,76.05
2023-01-03T09:44:51.185Z,76.32
2023-01-03T09:47:21.449Z,75.80
2023-01-03T09:50:18.813Z,75.48
2023-01-03T09:52:54.346Z,75.01
2023-01-03T09:56:03.343Z,75.53
2023-01-03T09:58:49.237Z,75.79
2023-01-03T10:01:38.289Z,76.92
2023-01-03T10:04:34.115Z,76.96
2023-01-03T10:07:04.158Z,75.42
2023-01-03T10:09:41.234Z,74.70
2023-01-03T10:12:29.970Z,74.30
2023-01-03T10:15:05.720Z,74.09
2023-01-03T10:17:55.710Z,74.28
2023-01-03T10:20:33.179Z,75.71
2023-01-03T10:23:00.870Z,76.06
2023-01-03T10:25:28.630Z,75.74
2023-01-03T10:28:00.587Z,76.23
2023-01-03T10:30:30.932Z,76.53
2023-01-03T10:33:20.281Z,74.50
2023-01-03T10:35:47.445Z,72.90
2023-01-03T10:38:16.107Z,73.04
2023-01-03T10:40:44.930Z,73.77
2023-01-03T10:43:29.729Z,74.19
2023-01-03T10:46:05.275Z,74.62
2023-01-03T10:49:25.883Z,75.03
2023-01-03T10:51:43.207Z,75.26
2023-01-03T10:54:22.164Z,73.92
2023-01-03T10:56:49.877Z,73.37
2023-01-03T10:59:18.721Z,73.79
2023-01-03T11:02:01.659Z,74.87
2023-01-03T11:04:30.251Z,74.27
2023-01-03T11:07:06.607Z,74.94
2023-01-03T11:09:54.038Z,74.75
2023-01-03T11:12:29.082Z,73.03
2023-01-03T11:14:57.578Z,72.77
2023-01-03T11:17:25.696Z,73.80
2023-01-03T11:19:53.165Z,74.38
2023-01-03T11:22:32.323Z,75.12
2023-01-03T11:25:02.813Z,75.39
2023-01-03T11:28:12.076Z,74.22
2023-01-03T11:31:04.595Z,72.01
2023-01-03T11:33:51.042Z,71.73
2023-01-03T11:36:37.806Z,72.24
2023-01-03T11:39:27.092Z,73.25
2023-01-03T11:42:19.137Z,73.76
2023-01-03T11:44:55.387Z,72.70
2023-01-03T11:48:16.702Z,73.58
2023-01-03T11:51:13.340Z,72.55
2023-01-03T11:54:18.072Z,72.40
2023-01-03T11:56:45.478Z,72.80
2023-01-03T11:59:31.414Z,73.44
2023-01-03T12:02:10.933Z,74.48
2023-01-03T12:04:44.760Z,75.01
2023-01-03T12:10:22.064Z,73.10
2023-01-03T12:13:29.855Z,73.80
2023-01-03T12:16:03.927Z,74.98
2023-01-03T12:18:43.223Z,75.47
2023-01-03T12:21:24.297Z,76.18
2023-01-03T12:23:58.878Z,75.67
2023-01-03T12:26:26.369Z,74.55
2023-01-03T12:29:18.407Z,74.85
2023-01-03T12:31:53.574Z,75.71
2023-01-03T12:34:34.926Z,76.12
2023-01-03T12:37:24.605Z,76.97
2023-01-03T12:40:01.301Z,75.63
2023-01-03T12:42:56.457Z,74.61
2023-01-03T12:45:34.613Z,75.33
2023-01-03T12:48:03.174Z,75.90
2023-01-03T12:50:36.393Z,76.67
2023-01-03T12:53:16.926Z,77.15
2023-01-03T12:56:11.758Z,76.19
2023-01-03T12:58:45.179Z,75.73
2023-01-03T13:01:18.164Z,75.62
2023-01-03T13:03:50.573Z,76.44
2023-01-03T13:06:24.970Z,77.04
2023-01-03T13:08:57.555Z,76.95
2023-01-03T13:14:04.070Z,75.72
2023-01-03T13:16:42.035Z,75.99
2023-01-03T13:19:21.937Z,76.80
2023-01-03T13:21:52.449Z,77.74
2023-01-03T13:32:23.649Z,76.20
2023-01-03T13:34:56.843Z,76.68
2023-01-03T13:37:28.077Z,77.45
2023-01-03T13:40:18.590Z,77.63
2023-01-03T13:42:45.638Z,76.07
2023-01-03T13:45:15.748Z,75.81
2023-01-03T13:47:45.629Z,76.36
2023-01-03T13:50:34.827Z,77.35
2023-01-03T13:53:03.648Z,77.96
2023-01-03T13:55:54.876Z,77.75
2023-01-03T13:58:27.511Z,76.16
2023-01-03T14:01:05.413Z,75.74
2023-01-03T14:03:56.677Z,76.46
2023-01-03T14:07:01.863Z,77.58
2023-01-03T14:09:44.371Z,78.16
2023-01-03T14:12:26.781Z,76.56
2023-01-03T14:14:55.404Z,75.78
2023-01-03T14:17:32.906Z,76.40
2023-01-03T14:20:06.316Z,76.40
2023-01-03T14:22:36.360Z,76.88
2023-01-03T14:25:03.437Z,77.17
2023-01-03T14:27:39.527Z,75.61
2023-01-03T14:30:37.759Z,75.11
2023-01-03T14:33:04.681Z,75.90
2023-01-03T14:35:32.874Z,77.00
2023-01-03T14:38:06.309Z,77.48
2023-01-03T14:40:34.094Z,77.86
2023-01-03T14:43:04.862Z,77.00
2023-01-03T14:45:32.010Z,76.99
2023-01-03T14:47:59.076Z,77.33
2023-01-03T14:50:32.969Z,78.06
2023-01-03T14:53:01.766Z,78.35
2023-01-03T14:55:30.572Z,77.63
2023-01-03T14:57:57.674Z,75.86
2023-01-03T15:00:33.491Z,76.17
2023-01-03T15:03:02.649Z,76.35
2023-01-03T15:05:32.679Z,76.10
2023-01-03T15:08:15.585Z,77.01
2023-01-03T15:10:53.486Z,75.97
2023-01-03T15:14:03.548Z,74.80
2023-01-03T15:16:31.974Z,74.47
2023-01-03T15:19:03.893Z,74.79
2023-01-03T15:21:35.534Z,75.41
2023-01-03T15:24:02.734Z,75.89
2023-01-03T15:26:40.152Z,75.60
2023-01-03T15:29:18.628Z,74.17
2023-01-03T15:31:59.922Z,74.14
2023-01-03T15:34:29.783Z,74.56
2023-01-03T15:37:06.464Z,75.60
2023-01-03T15:39:44.258Z,76.45
2023-01-03T15:42:51.947Z,76.75
2023-01-03T15:45:32.256Z,75.11
2023-01-03T15:48:00.122Z,74.91
2023-01-03T15:50:51.222Z,76.00
2023-01-03T15:53:25.648Z,77.12
2023-01-03T15:55:58.500Z,78.00
2023-01-03T15:58:26.355Z,77.61
2023-01-03T16:00:54.321Z,76.36
2023-01-03T16:03:21.599Z,76.18
2023-01-03T16:05:48.782Z,76.89
2023-01-03T16:08:28.208Z,77.93
2023-01-03T16:10:55.320Z,79.62
2023-01-03T16:13:23.696Z,79.82
2023-01-03T16:15:50.987Z,78.27
2023-01-03T16:18:21.501Z,77.57
2023-01-03T16:20:48.503Z,77.84
2023-01-03T16:23:38.722Z,78.56
2023-01-03T16:26:09.242Z,80.45
2023-01-03T16:28:36.450Z,80.90
2023-01-03T16:31:21.089Z,79.60
2023-01-03T16:33:49.237Z,79.33
2023-01-03T16:36:36.612Z,79.53
2023-01-03T16:39:05.963Z,80.85
2023-01-03T16:41:33.036Z,81.91
2023-01-03T16:44:00.186Z,80.92
2023-01-03T16:46:27.882Z,79.63
2023-01-03T16:48:56.519Z,79.44
2023-01-03T16:51:27.976Z,80.16
2023-01-03T16:53:56.629Z,80.82
2023-01-03T16:56:25.013Z,81.23
2023-01-03T16:58:52.780Z,80.23
2023-01-03T17:01:20.402Z,79.19
2023-01-03T17:03:47.858Z,79.39
2023-01-03T17:06:33.497Z,80.10
2023-01-03T17:09:25.823Z,81.40
2023-01-03T17:11:52.881Z,80.72
2023-01-03T17:14:21.354Z,79.17
2023-01-03T17:16:49.435Z,79.23
2023-01-03T17:22:19.256Z,80.48
2023-01-03T17:24:46.718Z,80.64
2023-01-03T17:27:17.027Z,79.13
2023-01-03T17:29:44.174Z,78.08
2023-01-03T17:32:18.940Z,78.44
2023-01-03T17:34:46.364Z,79.67
2023-01-03T17:37:20.537Z,80.87
2023-01-03T17:39:53.410Z,80.78
2023-01-03T17:42:20.822Z,78.77
2023-01-03T17:45:09.086Z,78.18
2023-01-03T17:47:57.930Z,78.81
2023-01-03T17:50:25.179Z,79.46
2023-01-03T17:52:55.988Z,80.30
2023-01-03T17:55:25.983Z,80.10
2023-01-03T17:57:53.387Z,78.74
2023-01-03T18:00:25.964Z,78.13
2023-01-03T18:02:54.665Z,78.40
2023-01-03T18:05:27.683Z,79.33
2023-01-03T18:08:00.697Z,79.99
2023-01-03T18:10:38.760Z,79.47
2023-01-03T18:13:32.489Z,77.92
2023-01-03T18:15:59.603Z,77.53
2023-01-03T18:18:27.099Z,78.32
2023-01-03T18:20:54.158Z,78.90
2023-01-03T18:23:50.377Z,79.77
2023-01-03T18:26:17.653Z,79.20
2023-01-03T18:28:44.880Z,77.92
2023-01-03T18:31:16.509Z,78.30
2023-01-03T18:33:43.911Z,79.50
2023-01-03T18:36:25.342Z,80.26
2023-01-03T18:39:03.908Z,80.92
2023-01-03T18:41:31.858Z,79.72
2023-01-03T18:44:01.823Z,78.99
2023-01-03T18:46:29.314Z,79.08
2023-01-03T18:48:56.480Z,79.92
2023-01-03T18:51:26.946Z,80.84
2023-01-03T18:53:56.939Z,81.26
2023-01-03T18:56:48.860Z,80.55
2023-01-03T18:59:21.302Z,79.52
2023-01-03T19:01:48.673Z,79.70
2023-01-03T19:04:15.985Z,80.66
2023-01-03T19:06:45.551Z,81.20
2023-01-03T19:09:31.037Z,80.58
2023-01-03T19:11:58.083Z,78.90
2023-01-03T19:14:26.581Z,78.76
2023-01-03T19:16:53.599Z,79.53
2023-01-03T19:19:20.541Z,79.90
2023-01-03T19:21:47.714Z,80.50
2023-01-03T19:24:20.062Z,79.32
2023-01-03T19:26:58.005Z,78.60
2023-01-03T19:29:26.894Z,78.94
2023-01-03T19:31:55.484Z,79.87
2023-01-03T19:34:24.612Z,80.98
2023-01-03T19:36:53.842Z,80.45
2023-01-03T19:39:25.101Z,79.30
2023-01-03T19:42:16.200Z,79.08
2023-01-03T19:44:43.487Z,79.66
2023-01-03T19:47:13.011Z,80.30
2023-01-03T19:49:40.131Z,80.83
2023-01-03T19:52:07.262Z,79.91
2023-01-03T19:54:42.539Z,78.73
2023-01-03T19:57:24.685Z,78.98
2023-01-03T19:59:54.096Z,79.38
2023-01-03T20:02:30.715Z,79.80
2023-01-03T20:04:58.263Z,80.64
2023-01-03T20:07:25.682Z,79.26
2023-01-03T20:09:52.630Z,78.28
2023-01-03T20:12:24.281Z,78.58
2023-01-03T20:14:52.957Z,79.11
2023-01-03T20:17:21.749Z,80.06
2023-01-03T20:19:49.214Z,80.81
2023-01-03T20:22:44.939Z,79.88
2023-01-03T20:25:06.041Z,78.01
2023-01-03T20:27:33.088Z,77.28
2023-01-03T20:30:00.222Z,76.83
2023-01-03T20:32:27.591Z,76.91
2023-01-03T20:34:54.630Z,77.49
2023-01-03T20:37:21.617Z,77.86
2023-01-03T20:39:49.140Z,76.98
2023-01-03T20:42:21.413Z,76.58
2023-01-03T20:44:48.906Z,77.72
2023-01-03T20:47:16.029Z,79.32
2023-01-03T20:49:43.468Z,80.58
2023-01-03T20:52:16.769Z,81.17
2023-01-03T20:54:43.814Z,79.58
2023-01-03T20:57:18.482Z,78.17
2023-01-03T20:59:45.487Z,78.16
2023-01-03T21:02:12.757Z,78.06
2023-01-03T21:04:40.097Z,78.10
2023-01-03T21:07:25.588Z,78.37
2023-01-03T21:09:52.577Z,77.34
2023-01-03T21:12:19.564Z,75.62
2023-01-03T21:14:49.665Z,75.09
2023-01-03T21:17:16.736Z,75.59
2023-01-03T21:19:44.090Z,76.20
2023-01-03T21:22:18.400Z,76.16
2023-01-03T21:24:46.158Z,76.83
2023-01-03T21:27:13.739Z,75.88
2023-01-03T21:29:40.865Z,74.91
2023-01-03T21:32:10.318Z,75.18
2023-01-03T21:34:37.540Z,75.36
2023-01-03T21:37:04.686Z,76.21
2023-01-03T21:39:31.722Z,76.84
2023-01-03T21:42:31.077Z,77.12
2023-01-03T21:44:58.072Z,76.58
2023-01-03T21:47:25.119Z,75.66
2023-01-03T21:49:52.081Z,75.21
2023-01-03T21:52:19.111Z,75.61
2023-01-03T21:54:46.031Z,76.18
2023-01-03T21:57:17.689Z,77.09
2023-01-03T21:59:48.235Z,77.36
2023-01-03T22:02:34.302Z,76.31
2023-01-03T22:05:01.490Z,75.95
2023-01-03T22:07:28.458Z,76.31
2023-01-03T22:10:14.325Z,76.81
2023-01-03T22:12:41.367Z,77.35
2023-01-03T22:15:09.028Z,77.80
2023-01-03T22:17:37.105Z,76.44
2023-01-03T22:20:11.028Z,75.38
2023-01-03T22:22:39.616Z,75.26
2023-01-03T22:25:08.470Z,75.66
2023-01-03T22:27:36.031Z,76.07
2023-01-03T22:30:07.625Z,76.67
2023-01-03T22:32:34.737Z,77.01
2023-01-03T22:35:01.671Z,76.19
2023-01-03T22:37:28.745Z,74.73
2023-01-03T22:39:55.788Z,74.95
2023-01-03T22:42:22.670Z,75.27
2023-01-03T22:44:49.511Z,75.49
2023-01-03T22:47:16.526Z,76.02
2023-01-03T22:49:43.553Z,76.51
2023-01-03T22:52:10.909Z,76.29
2023-01-03T22:54:38.078Z,74.31
2023-01-03T22:57:05.309Z,74.16
2023-01-03T22:59:32.213Z,74.95
2023-01-03T23:01:59.423Z,75.66
2023-01-03T23:04:28.020Z,76.00
2023-01-03T23:06:55.157Z,76.48
2023-01-03T23:09:22.599Z,77.17
2023-01-03T23:12:08.428Z,77.19
2023-01-03T23:14:35.557Z,75.70
2023-01-03T23:17:21.526Z,74.44
2023-01-03T23:19:48.907Z,75.35
2023-01-03T23:22:15.843Z,76.82
2023-01-03T23:24:42.728Z,77.98
2023-01-03T23:27:09.719Z,78.65
2023-01-03T23:29:36.744Z,79.40
2023-01-03T23:32:03.747Z,78.41
2023-01-03T23:34:30.756Z,76.70
2023-01-03T23:36:57.737Z,76.37
2023-01-03T23:39:24.744Z,76.30
2023-01-03T23:41:51.681Z,76.71
2023-01-03T23:44:18.651Z,77.20
2023-01-03T23:46:45.550Z,77.79
2023-01-03T23:49:13.573Z,77.91
2023-01-03T23:51:40.610Z,75.83
2023-01-03T23:54:07.628Z,74.33
2023-01-03T23:56:34.592Z,74.24
2023-01-03T23:59:01.846Z,74.37
